createdAt,value
2023-04-02T00:00:39.378Z,5.4
2023-04-02T00:15:39.972Z,5.5
2023-04-02T00:30:40.755Z,5.4
2023-04-02T00:45:41.118Z,5.7
2023-04-02T01:00:42.213Z,5.6
2023-04-02T01:15:43.336Z,5.4
2023-04-02T01:30:43.510Z,5.4
2023-04-02T01:45:43.897Z,5.4
2023-04-02T02:00:44.980Z,5.1
2023-04-02T02:15:44.972Z,5.1
2023-04-02T02:30:45.716Z,5.1
2023-04-02T02:45:46.320Z,5.3
2023-04-02T03:00:46.624Z,5
2023-04-02T03:15:47.094Z,4.9
2023-04-02T03:30:47.789Z,5.1
2023-04-02T03:45:49.335Z,5
2023-04-02T04:00:49.929Z,4.9
2023-04-02T04:15:49.379Z,4.8
2023-04-02T04:30:50.487Z,4.8
2023-04-02T04:45:51.565Z,4.8
2023-04-02T04:51:30.659Z,4.7
2023-04-02T05:06:31.419Z,4.7
2023-04-02T05:21:32.117Z,4.8
2023-04-02T05:36:32.229Z,4.9
2023-04-02T05:51:33.097Z,5.1
2023-04-02T06:06:33.168Z,5.2
2023-04-02T06:21:34.085Z,5.3
2023-04-02T06:36:34.914Z,5.7
2023-04-02T06:51:35.345Z,6.2
2023-04-02T07:06:35.961Z,6.5
2023-04-02T07:21:36.372Z,6.8
2023-04-02T07:36:37.789Z,7.2
2023-04-02T07:51:37.516Z,7.2
2023-04-02T08:06:38.564Z,7.1
2023-04-02T08:21:38.949Z,7.3
2023-04-02T08:36:39.804Z,7.6
2023-04-02T08:52:00.834Z,7.5
2023-04-02T09:07:10.435Z,7.7
2023-04-02T09:22:11.372Z,7.9
2023-04-02T09:37:11.704Z,8.4
2023-04-02T09:52:12.494Z,8.3
2023-04-02T10:07:13.343Z,8.1
2023-04-02T10:22:13.999Z,8.4
2023-04-02T10:37:14.815Z,8.7
2023-04-02T10:52:14.394Z,8.8
2023-04-02T11:07:15.597Z,9.1
2023-04-02T11:22:15.537Z,9.8
2023-04-02T11:37:16.445Z,10
2023-04-02T11:52:17.332Z,9.8
2023-04-02T12:07:17.421Z,10.2
2023-04-02T12:22:19.153Z,10.4
2023-04-02T12:37:20.175Z,10.3
2023-04-02T12:52:20.467Z,10.2
2023-04-02T13:07:20.982Z,10.3
2023-04-02T13:22:21.428Z,11
2023-04-02T13:37:22.073Z,11.9
2023-04-02T13:52:27.565Z,13.2
2023-04-02T14:07:23.147Z,13
2023-04-02T14:22:24.408Z,12.2
2023-04-02T14:37:25.023Z,11.8
2023-04-02T14:52:25.648Z,11.8
2023-04-02T15:07:25.468Z,11.5
2023-04-02T15:22:26.387Z,11.5
2023-04-02T15:37:27.256Z,13.6
2023-04-02T15:52:28.422Z,12.6
2023-04-02T16:07:28.650Z,11.8
2023-04-02T16:22:28.258Z,10.9
2023-04-02T16:37:29.645Z,10.3
2023-04-02T16:52:29.858Z,9.7
2023-04-02T17:07:30.587Z,8.9
2023-04-02T17:22:31.213Z,8.6
2023-04-02T17:37:31.877Z,8.2
2023-04-02T17:52:34.089Z,8.4
2023-04-02T18:07:32.691Z,7.9
2023-04-02T18:22:36.239Z,7.7
2023-04-02T18:37:34.011Z,7.8
2023-04-02T18:52:34.987Z,7.6
2023-04-02T19:07:35.097Z,7.8
2023-04-02T19:22:47.689Z,7.8
2023-04-02T19:37:36.603Z,8.1
2023-04-02T19:52:40.445Z,8.1
2023-04-02T20:07:38.761Z,8.1
2023-04-02T20:22:38.631Z,7.8
2023-04-02T20:37:40.680Z,7.1
2023-04-02T20:52:40.531Z,7
2023-04-02T21:07:41.704Z,6.8
2023-04-02T21:22:41.702Z,6
2023-04-02T21:37:45.592Z,6.6
2023-04-02T21:52:43.002Z,6.4
2023-04-02T22:00:48.474Z,6.3
2023-04-02T22:15:35.475Z,5.8
2023-04-02T22:30:36.018Z,5.2
2023-04-02T22:45:36.398Z,5.4
2023-04-02T23:00:37.644Z,4.9
2023-04-02T23:15:37.648Z,4.4
2023-04-02T23:30:38.901Z,3.9
2023-04-02T23:45:38.530Z,3.7
